sensor_id;sensor_type;location;lat;lon;timestamp;P1;durP1;ratioP1;P2;durP2;ratioP2
45198;SDS011;30941;46.422;18.772;2023-12-04T00:00:32;44.57;;;23.40;;
45198;SDS011;30941;46.422;18.772;2023-12-04T00:02:57;40.20;;;21.97;;
45198;SDS011;30941;46.422;18.772;2023-12-04T00:05:23;40.00;;;22.07;;
45198;SDS011;30941;46.422;18.772;2023-12-04T00:07:48;43.03;;;21.17;;
45198;SDS011;30941;46.422;18.772;2023-12-04T00:10:13;37.23;;;20.60;;
45198;SDS011;30941;46.422;18.772;2023-12-04T00:12:39;34.53;;;18.93;;
45198;SDS011;30941;46.422;18.772;2023-12-04T00:15:05;31.87;;;19.47;;
45198;SDS011;30941;46.422;18.772;2023-12-04T00:17:30;31.00;;;17.43;;
45198;SDS011;30941;46.422;18.772;2023-12-04T00:19:56;30.00;;;17.47;;
45198;SDS011;30941;46.422;18.772;2023-12-04T00:22:21;22.93;;;13.67;;
45198;SDS011;30941;46.422;18.772;2023-12-04T00:24:48;24.50;;;13.00;;
45198;SDS011;30941;46.422;18.772;2023-12-04T00:27:14;22.90;;;11.83;;
45198;SDS011;30941;46.422;18.772;2023-12-04T00:29:39;21.47;;;11.37;;
45198;SDS011;30941;46.422;18.772;2023-12-04T00:32:04;19.73;;;11.00;;
45198;SDS011;30941;46.422;18.772;2023-12-04T00:34:30;18.67;;;10.73;;
45198;SDS011;30941;46.422;18.772;2023-12-04T00:36:55;19.37;;;11.67;;
45198;SDS011;30941;46.422;18.772;2023-12-04T00:39:21;21.00;;;11.87;;
45198;SDS011;30941;46.422;18.772;2023-12-04T00:41:46;22.33;;;12.17;;
45198;SDS011;30941;46.422;18.772;2023-12-04T00:44:11;19.77;;;11.43;;
45198;SDS011;30941;46.422;18.772;2023-12-04T00:46:37;23.23;;;12.27;;
45198;SDS011;30941;46.422;18.772;2023-12-04T00:49:02;24.67;;;13.77;;
45198;SDS011;30941;46.422;18.772;2023-12-04T00:51:27;23.27;;;13.03;;
45198;SDS011;30941;46.422;18.772;2023-12-04T00:53:53;25.07;;;13.47;;
45198;SDS011;30941;46.422;18.772;2023-12-04T00:56:18;20.52;;;12.52;;
45198;SDS011;30941;46.422;18.772;2023-12-04T00:58:45;23.00;;;11.67;;
45198;SDS011;30941;46.422;18.772;2023-12-04T01:01:11;23.67;;;11.37;;
45198;SDS011;30941;46.422;18.772;2023-12-04T01:03:37;19.77;;;11.17;;
45198;SDS011;30941;46.422;18.772;2023-12-04T01:06:02;21.40;;;10.87;;
45198;SDS011;30941;46.422;18.772;2023-12-04T01:08:28;21.47;;;11.03;;
45198;SDS011;30941;46.422;18.772;2023-12-04T01:10:53;18.53;;;10.00;;
45198;SDS011;30941;46.422;18.772;2023-12-04T01:13:19;21.53;;;10.73;;
45198;SDS011;30941;46.422;18.772;2023-12-04T01:15:44;18.53;;;10.13;;
45198;SDS011;30941;46.422;18.772;2023-12-04T01:18:11;20.00;;;10.73;;
45198;SDS011;30941;46.422;18.772;2023-12-04T01:20:36;19.87;;;11.10;;
45198;SDS011;30941;46.422;18.772;2023-12-04T01:23:02;21.00;;;11.93;;
45198;SDS011;30941;46.422;18.772;2023-12-04T01:25:27;23.45;;;12.23;;
45198;SDS011;30941;46.422;18.772;2023-12-04T01:27:53;23.90;;;12.23;;
45198;SDS011;30941;46.422;18.772;2023-12-04T01:30:18;20.27;;;11.63;;
45198;SDS011;30941;46.422;18.772;2023-12-04T01:32:43;19.07;;;11.67;;
45198;SDS011;30941;46.422;18.772;2023-12-04T01:35:09;21.83;;;12.37;;
45198;SDS011;30941;46.422;18.772;2023-12-04T01:37:34;21.53;;;11.73;;
45198;SDS011;30941;46.422;18.772;2023-12-04T01:39:59;22.40;;;12.10;;
45198;SDS011;30941;46.422;18.772;2023-12-04T01:42:25;21.10;;;11.37;;
45198;SDS011;30941;46.422;18.772;2023-12-04T01:44:50;22.27;;;11.73;;
45198;SDS011;30941;46.422;18.772;2023-12-04T01:47:16;21.67;;;11.80;;
45198;SDS011;30941;46.422;18.772;2023-12-04T01:49:42;23.17;;;12.53;;
45198;SDS011;30941;46.422;18.772;2023-12-04T01:52:08;21.83;;;12.80;;
45198;SDS011;30941;46.422;18.772;2023-12-04T01:54:33;22.83;;;12.50;;
45198;SDS011;30941;46.422;18.772;2023-12-04T01:56:59;25.07;;;12.53;;
45198;SDS011;30941;46.422;18.772;2023-12-04T01:59:25;24.40;;;13.03;;
45198;SDS011;30941;46.422;18.772;2023-12-04T02:01:51;23.70;;;12.90;;
45198;SDS011;30941;46.422;18.772;2023-12-04T02:04:17;23.07;;;11.47;;
45198;SDS011;30941;46.422;18.772;2023-12-04T02:06:42;26.40;;;13.10;;
45198;SDS011;30941;46.422;18.772;2023-12-04T02:09:07;24.30;;;13.20;;
45198;SDS011;30941;46.422;18.772;2023-12-04T02:11:37;22.43;;;11.93;;
45198;SDS011;30941;46.422;18.772;2023-12-04T02:14:04;23.33;;;12.60;;
45198;SDS011;30941;46.422;18.772;2023-12-04T02:16:29;22.57;;;12.43;;
45198;SDS011;30941;46.422;18.772;2023-12-04T02:18:57;23.30;;;12.87;;
45198;SDS011;30941;46.422;18.772;2023-12-04T02:21:22;25.60;;;12.67;;
45198;SDS011;30941;46.422;18.772;2023-12-04T02:23:49;28.83;;;14.03;;
45198;SDS011;30941;46.422;18.772;2023-12-04T02:26:18;23.23;;;12.93;;
45198;SDS011;30941;46.422;18.772;2023-12-04T02:28:47;26.50;;;12.17;;
45198;SDS011;30941;46.422;18.772;2023-12-04T02:31:18;24.07;;;12.30;;
45198;SDS011;30941;46.422;18.772;2023-12-04T02:33:44;25.90;;;13.03;;
45198;SDS011;30941;46.422;18.772;2023-12-04T02:36:10;22.30;;;12.27;;
45198;SDS011;30941;46.422;18.772;2023-12-04T02:38:36;24.33;;;13.17;;
45198;SDS011;30941;46.422;18.772;2023-12-04T02:41:02;25.00;;;14.03;;
45198;SDS011;30941;46.422;18.772;2023-12-04T02:43:28;23.00;;;12.53;;
45198;SDS011;30941;46.422;18.772;2023-12-04T02:45:53;21.97;;;12.70;;
45198;SDS011;30941;46.422;18.772;2023-12-04T02:48:18;25.57;;;12.97;;
45198;SDS011;30941;46.422;18.772;2023-12-04T02:50:44;25.60;;;12.67;;
45198;SDS011;30941;46.422;18.772;2023-12-04T02:53:09;23.63;;;12.50;;
45198;SDS011;30941;46.422;18.772;2023-12-04T02:55:34;22.07;;;11.80;;
45198;SDS011;30941;46.422;18.772;2023-12-04T02:58:00;24.73;;;13.20;;
45198;SDS011;30941;46.422;18.772;2023-12-04T03:00:25;21.93;;;11.73;;
45198;SDS011;30941;46.422;18.772;2023-12-04T03:02:51;24.47;;;13.03;;
45198;SDS011;30941;46.422;18.772;2023-12-04T03:05:16;22.83;;;12.33;;
45198;SDS011;30941;46.422;18.772;2023-12-04T03:07:41;20.03;;;12.33;;
45198;SDS011;30941;46.422;18.772;2023-12-04T03:10:07;27.47;;;13.83;;
45198;SDS011;30941;46.422;18.772;2023-12-04T03:12:33;26.43;;;13.23;;
45198;SDS011;30941;46.422;18.772;2023-12-04T03:14:58;28.53;;;14.93;;
45198;SDS011;30941;46.422;18.772;2023-12-04T03:17:24;25.80;;;13.30;;
45198;SDS011;30941;46.422;18.772;2023-12-04T03:19:49;27.27;;;13.67;;
45198;SDS011;30941;46.422;18.772;2023-12-04T03:22:15;27.33;;;13.77;;
45198;SDS011;30941;46.422;18.772;2023-12-04T03:24:40;26.37;;;14.30;;
45198;SDS011;30941;46.422;18.772;2023-12-04T03:27:06;28.87;;;14.23;;
45198;SDS011;30941;46.422;18.772;2023-12-04T03:29:31;28.83;;;14.57;;
45198;SDS011;30941;46.422;18.772;2023-12-04T03:31:56;26.40;;;13.47;;
45198;SDS011;30941;46.422;18.772;2023-12-04T03:34:22;24.47;;;13.30;;
45198;SDS011;30941;46.422;18.772;2023-12-04T03:36:48;28.27;;;13.77;;
45198;SDS011;30941;46.422;18.772;2023-12-04T03:39:13;26.87;;;13.33;;
45198;SDS011;30941;46.422;18.772;2023-12-04T03:41:38;27.83;;;14.03;;
45198;SDS011;30941;46.422;18.772;2023-12-04T03:44:04;26.57;;;12.70;;
45198;SDS011;30941;46.422;18.772;2023-12-04T03:46:29;30.77;;;13.47;;
45198;SDS011;30941;46.422;18.772;2023-12-04T03:48:55;25.60;;;12.83;;
45198;SDS011;30941;46.422;18.772;2023-12-04T03:51:20;25.23;;;13.30;;
45198;SDS011;30941;46.422;18.772;2023-12-04T03:53:45;25.93;;;13.20;;
45198;SDS011;30941;46.422;18.772;2023-12-04T03:56:11;26.43;;;12.87;;
45198;SDS011;30941;46.422;18.772;2023-12-04T03:58:37;21.07;;;11.30;;
45198;SDS011;30941;46.422;18.772;2023-12-04T04:01:03;27.53;;;13.10;;
45198;SDS011;30941;46.422;18.772;2023-12-04T04:03:29;21.57;;;11.57;;
45198;SDS011;30941;46.422;18.772;2023-12-04T04:05:54;23.67;;;13.73;;
45198;SDS011;30941;46.422;18.772;2023-12-04T04:08:20;24.00;;;11.87;;
45198;SDS011;30941;46.422;18.772;2023-12-04T04:10:45;23.53;;;12.37;;
45198;SDS011;30941;46.422;18.772;2023-12-04T04:13:10;24.03;;;12.17;;
45198;SDS011;30941;46.422;18.772;2023-12-04T04:15:36;22.30;;;12.50;;
45198;SDS011;30941;46.422;18.772;2023-12-04T04:18:01;24.87;;;13.60;;
45198;SDS011;30941;46.422;18.772;2023-12-04T04:20:26;24.80;;;13.10;;
45198;SDS011;30941;46.422;18.772;2023-12-04T04:22:52;21.13;;;11.30;;
45198;SDS011;30941;46.422;18.772;2023-12-04T04:25:18;24.37;;;12.27;;
45198;SDS011;30941;46.422;18.772;2023-12-04T04:27:46;19.03;;;10.73;;
45198;SDS011;30941;46.422;18.772;2023-12-04T04:30:11;23.83;;;11.97;;
45198;SDS011;30941;46.422;18.772;2023-12-04T04:32:38;22.73;;;12.00;;
45198;SDS011;30941;46.422;18.772;2023-12-04T04:35:04;26.13;;;12.30;;
45198;SDS011;30941;46.422;18.772;2023-12-04T04:37:29;23.40;;;11.87;;
45198;SDS011;30941;46.422;18.772;2023-12-04T04:39:55;21.53;;;11.17;;
45198;SDS011;30941;46.422;18.772;2023-12-04T04:42:21;20.50;;;12.10;;
45198;SDS011;30941;46.422;18.772;2023-12-04T04:44:47;21.60;;;12.50;;
45198;SDS011;30941;46.422;18.772;2023-12-04T04:47:12;25.43;;;12.40;;
45198;SDS011;30941;46.422;18.772;2023-12-04T04:49:38;21.47;;;11.87;;
45198;SDS011;30941;46.422;18.772;2023-12-04T04:52:03;23.53;;;11.80;;
45198;SDS011;30941;46.422;18.772;2023-12-04T04:54:32;28.93;;;14.57;;
45198;SDS011;30941;46.422;18.772;2023-12-04T04:56:57;32.00;;;14.63;;
45198;SDS011;30941;46.422;18.772;2023-12-04T04:59:23;39.07;;;16.10;;
45198;SDS011;30941;46.422;18.772;2023-12-04T05:01:48;41.27;;;17.60;;
45198;SDS011;30941;46.422;18.772;2023-12-04T05:04:13;71.90;;;25.13;;
45198;SDS011;30941;46.422;18.772;2023-12-04T05:06:39;53.80;;;23.17;;
45198;SDS011;30941;46.422;18.772;2023-12-04T05:09:04;38.63;;;17.50;;
45198;SDS011;30941;46.422;18.772;2023-12-04T05:11:30;36.27;;;16.27;;
45198;SDS011;30941;46.422;18.772;2023-12-04T05:13:55;30.57;;;15.63;;
45198;SDS011;30941;46.422;18.772;2023-12-04T05:16:20;27.80;;;14.70;;
45198;SDS011;30941;46.422;18.772;2023-12-04T05:18:46;34.33;;;15.43;;
45198;SDS011;30941;46.422;18.772;2023-12-04T05:21:11;29.13;;;14.20;;
45198;SDS011;30941;46.422;18.772;2023-12-04T05:23:37;25.43;;;13.37;;
45198;SDS011;30941;46.422;18.772;2023-12-04T05:26:03;26.93;;;14.63;;
45198;SDS011;30941;46.422;18.772;2023-12-04T05:28:28;28.60;;;13.90;;
45198;SDS011;30941;46.422;18.772;2023-12-04T05:30:54;29.73;;;14.63;;
45198;SDS011;30941;46.422;18.772;2023-12-04T05:33:19;27.13;;;13.63;;
45198;SDS011;30941;46.422;18.772;2023-12-04T05:35:45;24.70;;;13.70;;
45198;SDS011;30941;46.422;18.772;2023-12-04T05:38:12;23.77;;;13.10;;
45198;SDS011;30941;46.422;18.772;2023-12-04T05:40:38;26.53;;;12.60;;
45198;SDS011;30941;46.422;18.772;2023-12-04T05:43:03;22.60;;;12.27;;
45198;SDS011;30941;46.422;18.772;2023-12-04T05:45:28;23.23;;;12.73;;
45198;SDS011;30941;46.422;18.772;2023-12-04T05:47:54;20.73;;;12.07;;
45198;SDS011;30941;46.422;18.772;2023-12-04T05:50:19;23.50;;;12.27;;
45198;SDS011;30941;46.422;18.772;2023-12-04T05:52:44;18.17;;;11.00;;
45198;SDS011;30941;46.422;18.772;2023-12-04T05:55:10;19.33;;;11.03;;
45198;SDS011;30941;46.422;18.772;2023-12-04T05:57:35;20.23;;;11.07;;
45198;SDS011;30941;46.422;18.772;2023-12-04T06:00:01;21.63;;;10.90;;
45198;SDS011;30941;46.422;18.772;2023-12-04T06:02:26;23.07;;;11.93;;
45198;SDS011;30941;46.422;18.772;2023-12-04T06:04:55;22.67;;;11.53;;
45198;SDS011;30941;46.422;18.772;2023-12-04T06:07:20;21.20;;;11.33;;
45198;SDS011;30941;46.422;18.772;2023-12-04T06:09:45;18.30;;;10.73;;
45198;SDS011;30941;46.422;18.772;2023-12-04T06:12:11;19.07;;;11.63;;
45198;SDS011;30941;46.422;18.772;2023-12-04T06:14:36;21.57;;;10.90;;
45198;SDS011;30941;46.422;18.772;2023-12-04T06:17:01;18.63;;;10.87;;
45198;SDS011;30941;46.422;18.772;2023-12-04T06:19:27;19.43;;;10.50;;
45198;SDS011;30941;46.422;18.772;2023-12-04T06:21:52;20.87;;;10.43;;
45198;SDS011;30941;46.422;18.772;2023-12-04T06:24:18;19.47;;;10.47;;
45198;SDS011;30941;46.422;18.772;2023-12-04T06:26:44;21.37;;;11.47;;
45198;SDS011;30941;46.422;18.772;2023-12-04T06:29:12;18.33;;;11.13;;
45198;SDS011;30941;46.422;18.772;2023-12-04T06:31:37;19.90;;;11.70;;
45198;SDS011;30941;46.422;18.772;2023-12-04T06:34:03;21.90;;;10.80;;
45198;SDS011;30941;46.422;18.772;2023-12-04T06:36:29;22.27;;;11.90;;
45198;SDS011;30941;46.422;18.772;2023-12-04T06:38:56;20.57;;;10.13;;
45198;SDS011;30941;46.422;18.772;2023-12-04T06:41:23;21.70;;;12.10;;
45198;SDS011;30941;46.422;18.772;2023-12-04T06:43:49;22.40;;;11.33;;
45198;SDS011;30941;46.422;18.772;2023-12-04T06:46:14;22.67;;;11.93;;
45198;SDS011;30941;46.422;18.772;2023-12-04T06:48:41;17.27;;;11.07;;
45198;SDS011;30941;46.422;18.772;2023-12-04T06:51:08;23.07;;;13.50;;
45198;SDS011;30941;46.422;18.772;2023-12-04T06:53:33;21.57;;;11.37;;
45198;SDS011;30941;46.422;18.772;2023-12-04T06:55:59;22.57;;;12.00;;
45198;SDS011;30941;46.422;18.772;2023-12-04T06:58:24;20.90;;;11.40;;
45198;SDS011;30941;46.422;18.772;2023-12-04T07:00:49;20.93;;;11.27;;
45198;SDS011;30941;46.422;18.772;2023-12-04T07:03:15;21.17;;;11.37;;
45198;SDS011;30941;46.422;18.772;2023-12-04T07:05:41;19.83;;;11.20;;
45198;SDS011;30941;46.422;18.772;2023-12-04T07:08:07;19.93;;;10.93;;
45198;SDS011;30941;46.422;18.772;2023-12-04T07:10:32;20.20;;;11.67;;
45198;SDS011;30941;46.422;18.772;2023-12-04T07:12:58;17.30;;;10.20;;
45198;SDS011;30941;46.422;18.772;2023-12-04T07:15:23;18.10;;;9.53;;
45198;SDS011;30941;46.422;18.772;2023-12-04T07:17:48;17.07;;;9.60;;
45198;SDS011;30941;46.422;18.772;2023-12-04T07:20:14;19.00;;;9.63;;
45198;SDS011;30941;46.422;18.772;2023-12-04T07:22:39;16.13;;;10.13;;
45198;SDS011;30941;46.422;18.772;2023-12-04T07:25:05;17.17;;;9.00;;
45198;SDS011;30941;46.422;18.772;2023-12-04T07:27:34;20.33;;;10.27;;
45198;SDS011;30941;46.422;18.772;2023-12-04T07:29:59;18.93;;;9.73;;
45198;SDS011;30941;46.422;18.772;2023-12-04T07:32:25;17.80;;;10.63;;
45198;SDS011;30941;46.422;18.772;2023-12-04T07:34:50;19.07;;;10.30;;
45198;SDS011;30941;46.422;18.772;2023-12-04T07:37:15;18.73;;;10.37;;
45198;SDS011;30941;46.422;18.772;2023-12-04T07:39:41;23.17;;;10.03;;
45198;SDS011;30941;46.422;18.772;2023-12-04T07:42:11;18.17;;;9.52;;
45198;SDS011;30941;46.422;18.772;2023-12-04T07:44:36;18.03;;;9.63;;
45198;SDS011;30941;46.422;18.772;2023-12-04T07:47:02;17.95;;;9.95;;
45198;SDS011;30941;46.422;18.772;2023-12-04T07:49:27;17.85;;;10.52;;
45198;SDS011;30941;46.422;18.772;2023-12-04T07:51:52;19.13;;;9.52;;
45198;SDS011;30941;46.422;18.772;2023-12-04T07:54:18;18.45;;;11.07;;
45198;SDS011;30941;46.422;18.772;2023-12-04T07:56:43;18.87;;;10.60;;
45198;SDS011;30941;46.422;18.772;2023-12-04T07:59:09;19.13;;;10.83;;
45198;SDS011;30941;46.422;18.772;2023-12-04T08:01:34;20.40;;;11.73;;
45198;SDS011;30941;46.422;18.772;2023-12-04T08:03:59;19.65;;;11.18;;
45198;SDS011;30941;46.422;18.772;2023-12-04T08:06:25;22.35;;;12.00;;
45198;SDS011;30941;46.422;18.772;2023-12-04T08:08:50;19.00;;;10.05;;
45198;SDS011;30941;46.422;18.772;2023-12-04T08:11:16;18.13;;;10.65;;
45198;SDS011;30941;46.422;18.772;2023-12-04T08:13:43;18.98;;;11.35;;
45198;SDS011;30941;46.422;18.772;2023-12-04T08:16:14;17.70;;;10.35;;
45198;SDS011;30941;46.422;18.772;2023-12-04T08:18:40;21.50;;;11.27;;
45198;SDS011;30941;46.422;18.772;2023-12-04T08:21:05;20.35;;;11.85;;
45198;SDS011;30941;46.422;18.772;2023-12-04T08:23:31;17.30;;;10.68;;
45198;SDS011;30941;46.422;18.772;2023-12-04T08:25:56;19.13;;;10.75;;
45198;SDS011;30941;46.422;18.772;2023-12-04T08:28:22;20.92;;;11.23;;
45198;SDS011;30941;46.422;18.772;2023-12-04T08:30:47;21.48;;;11.98;;
45198;SDS011;30941;46.422;18.772;2023-12-04T08:33:13;20.63;;;12.48;;
45198;SDS011;30941;46.422;18.772;2023-12-04T08:35:38;19.50;;;11.70;;
45198;SDS011;30941;46.422;18.772;2023-12-04T08:38:03;19.25;;;10.63;;
45198;SDS011;30941;46.422;18.772;2023-12-04T08:40:29;21.95;;;12.10;;
45198;SDS011;30941;46.422;18.772;2023-12-04T08:42:54;19.90;;;11.35;;
45198;SDS011;30941;46.422;18.772;2023-12-04T08:45:19;21.55;;;11.68;;
45198;SDS011;30941;46.422;18.772;2023-12-04T08:47:45;17.67;;;10.70;;
45198;SDS011;30941;46.422;18.772;2023-12-04T08:50:11;16.65;;;10.60;;
45198;SDS011;30941;46.422;18.772;2023-12-04T08:52:36;17.77;;;10.88;;
45198;SDS011;30941;46.422;18.772;2023-12-04T08:55:01;18.83;;;10.65;;
45198;SDS011;30941;46.422;18.772;2023-12-04T08:57:27;15.90;;;10.63;;
45198;SDS011;30941;46.422;18.772;2023-12-04T08:59:52;14.52;;;9.10;;
45198;SDS011;30941;46.422;18.772;2023-12-04T09:02:18;16.38;;;9.73;;
45198;SDS011;30941;46.422;18.772;2023-12-04T09:04:43;16.23;;;8.82;;
45198;SDS011;30941;46.422;18.772;2023-12-04T09:07:08;17.98;;;10.23;;
45198;SDS011;30941;46.422;18.772;2023-12-04T09:09:34;15.05;;;9.40;;
45198;SDS011;30941;46.422;18.772;2023-12-04T09:11:59;17.35;;;9.98;;
45198;SDS011;30941;46.422;18.772;2023-12-04T09:14:25;21.10;;;10.30;;
45198;SDS011;30941;46.422;18.772;2023-12-04T09:16:52;17.95;;;10.98;;
45198;SDS011;30941;46.422;18.772;2023-12-04T09:19:18;16.70;;;10.38;;
45198;SDS011;30941;46.422;18.772;2023-12-04T09:21:43;17.42;;;9.82;;
45198;SDS011;30941;46.422;18.772;2023-12-04T09:24:09;15.38;;;10.27;;
45198;SDS011;30941;46.422;18.772;2023-12-04T09:26:34;16.15;;;10.13;;
45198;SDS011;30941;46.422;18.772;2023-12-04T09:29:00;16.83;;;9.73;;
45198;SDS011;30941;46.422;18.772;2023-12-04T09:31:25;17.73;;;11.13;;
45198;SDS011;30941;46.422;18.772;2023-12-04T09:33:50;16.98;;;10.45;;
45198;SDS011;30941;46.422;18.772;2023-12-04T09:36:16;18.58;;;10.30;;
45198;SDS011;30941;46.422;18.772;2023-12-04T09:38:42;17.95;;;9.93;;
45198;SDS011;30941;46.422;18.772;2023-12-04T09:41:08;16.90;;;10.45;;
45198;SDS011;30941;46.422;18.772;2023-12-04T09:43:35;20.45;;;11.50;;
45198;SDS011;30941;46.422;18.772;2023-12-04T09:46:01;20.70;;;10.77;;
45198;SDS011;30941;46.422;18.772;2023-12-04T09:48:27;15.65;;;10.02;;
45198;SDS011;30941;46.422;18.772;2023-12-04T09:50:53;16.88;;;9.68;;
45198;SDS011;30941;46.422;18.772;2023-12-04T09:53:18;13.32;;;8.88;;
45198;SDS011;30941;46.422;18.772;2023-12-04T09:55:47;14.50;;;9.23;;
45198;SDS011;30941;46.422;18.772;2023-12-04T09:58:14;17.23;;;10.75;;
45198;SDS011;30941;46.422;18.772;2023-12-04T10:00:41;17.35;;;10.55;;
45198;SDS011;30941;46.422;18.772;2023-12-04T10:03:07;15.18;;;10.13;;
45198;SDS011;30941;46.422;18.772;2023-12-04T10:05:32;13.43;;;8.75;;
45198;SDS011;30941;46.422;18.772;2023-12-04T10:07:57;15.80;;;9.07;;
45198;SDS011;30941;46.422;18.772;2023-12-04T10:10:23;13.90;;;8.75;;
45198;SDS011;30941;46.422;18.772;2023-12-04T10:12:48;14.07;;;8.02;;
45198;SDS011;30941;46.422;18.772;2023-12-04T10:15:14;12.23;;;8.25;;
45198;SDS011;30941;46.422;18.772;2023-12-04T10:17:41;10.90;;;6.85;;
45198;SDS011;30941;46.422;18.772;2023-12-04T10:22:40;12.20;;;7.50;;
45198;SDS011;30941;46.422;18.772;2023-12-04T10:25:24;11.38;;;7.80;;
45198;SDS011;30941;46.422;18.772;2023-12-04T10:27:52;19.90;;;7.80;;
45198;SDS011;30941;46.422;18.772;2023-12-04T10:30:22;10.70;;;7.85;;
45198;SDS011;30941;46.422;18.772;2023-12-04T10:32:55;11.93;;;7.83;;
45198;SDS011;30941;46.422;18.772;2023-12-04T10:35:21;10.73;;;7.93;;
45198;SDS011;30941;46.422;18.772;2023-12-04T10:37:48;13.50;;;8.20;;
45198;SDS011;30941;46.422;18.772;2023-12-04T10:40:22;13.35;;;8.30;;
45198;SDS011;30941;46.422;18.772;2023-12-04T10:42:51;12.48;;;8.52;;
45198;SDS011;30941;46.422;18.772;2023-12-04T10:45:18;12.23;;;8.23;;
45198;SDS011;30941;46.422;18.772;2023-12-04T10:47:47;16.13;;;8.32;;
45198;SDS011;30941;46.422;18.772;2023-12-04T10:50:12;12.43;;;8.10;;
45198;SDS011;30941;46.422;18.772;2023-12-04T10:52:39;11.65;;;7.43;;
45198;SDS011;30941;46.422;18.772;2023-12-04T10:55:05;11.88;;;8.77;;
45198;SDS011;30941;46.422;18.772;2023-12-04T10:57:33;12.05;;;8.38;;
45198;SDS011;30941;46.422;18.772;2023-12-04T11:00:03;11.18;;;7.82;;
45198;SDS011;30941;46.422;18.772;2023-12-04T11:02:33;10.48;;;8.27;;
45198;SDS011;30941;46.422;18.772;2023-12-04T11:05:08;10.52;;;7.95;;
45198;SDS011;30941;46.422;18.772;2023-12-04T11:07:44;11.02;;;7.68;;
45198;SDS011;30941;46.422;18.772;2023-12-04T11:10:32;10.18;;;7.85;;
45198;SDS011;30941;46.422;18.772;2023-12-04T11:13:06;11.00;;;7.80;;
45198;SDS011;30941;46.422;18.772;2023-12-04T11:15:35;10.63;;;8.32;;
45198;SDS011;30941;46.422;18.772;2023-12-04T11:18:06;11.57;;;8.10;;
45198;SDS011;30941;46.422;18.772;2023-12-04T11:20:34;15.90;;;7.47;;
45198;SDS011;30941;46.422;18.772;2023-12-04T11:23:02;10.48;;;7.78;;
45198;SDS011;30941;46.422;18.772;2023-12-04T11:25:28;11.40;;;8.35;;
45198;SDS011;30941;46.422;18.772;2023-12-04T11:27:54;9.50;;;7.72;;
45198;SDS011;30941;46.422;18.772;2023-12-04T11:30:20;11.73;;;7.90;;
45198;SDS011;30941;46.422;18.772;2023-12-04T11:32:46;9.95;;;7.60;;
45198;SDS011;30941;46.422;18.772;2023-12-04T11:35:17;9.35;;;7.57;;
45198;SDS011;30941;46.422;18.772;2023-12-04T11:37:43;9.88;;;7.65;;
45198;SDS011;30941;46.422;18.772;2023-12-04T11:40:12;21.50;;;8.68;;
45198;SDS011;30941;46.422;18.772;2023-12-04T11:42:41;9.20;;;7.38;;
45198;SDS011;30941;46.422;18.772;2023-12-04T11:45:06;7.82;;;6.22;;
45198;SDS011;30941;46.422;18.772;2023-12-04T11:50:20;8.77;;;6.38;;
45198;SDS011;30941;46.422;18.772;2023-12-04T11:52:46;7.10;;;6.07;;
45198;SDS011;30941;46.422;18.772;2023-12-04T11:55:11;8.27;;;6.32;;
45198;SDS011;30941;46.422;18.772;2023-12-04T11:57:40;8.77;;;6.05;;
45198;SDS011;30941;46.422;18.772;2023-12-04T12:02:40;11.32;;;7.20;;
45198;SDS011;30941;46.422;18.772;2023-12-04T12:05:05;8.65;;;6.53;;
45198;SDS011;30941;46.422;18.772;2023-12-04T12:07:32;9.48;;;6.07;;
45198;SDS011;30941;46.422;18.772;2023-12-04T12:09:58;9.00;;;6.03;;
45198;SDS011;30941;46.422;18.772;2023-12-04T12:12:25;10.43;;;6.25;;
45198;SDS011;30941;46.422;18.772;2023-12-04T12:14:51;8.57;;;6.13;;
45198;SDS011;30941;46.422;18.772;2023-12-04T12:17:17;11.50;;;6.32;;
45198;SDS011;30941;46.422;18.772;2023-12-04T12:19:42;8.93;;;6.15;;
45198;SDS011;30941;46.422;18.772;2023-12-04T12:22:08;8.98;;;5.88;;
45198;SDS011;30941;46.422;18.772;2023-12-04T12:24:33;8.82;;;6.30;;
45198;SDS011;30941;46.422;18.772;2023-12-04T12:26:58;9.45;;;6.60;;
45198;SDS011;30941;46.422;18.772;2023-12-04T12:29:24;8.65;;;5.57;;
45198;SDS011;30941;46.422;18.772;2023-12-04T12:31:50;8.75;;;6.03;;
45198;SDS011;30941;46.422;18.772;2023-12-04T12:34:16;11.13;;;6.13;;
45198;SDS011;30941;46.422;18.772;2023-12-04T12:36:42;13.70;;;6.10;;
45198;SDS011;30941;46.422;18.772;2023-12-04T12:39:07;10.23;;;5.80;;
45198;SDS011;30941;46.422;18.772;2023-12-04T12:41:33;9.18;;;5.68;;
45198;SDS011;30941;46.422;18.772;2023-12-04T12:44:00;7.88;;;5.20;;
45198;SDS011;30941;46.422;18.772;2023-12-04T12:46:25;9.77;;;5.80;;
45198;SDS011;30941;46.422;18.772;2023-12-04T12:48:51;11.25;;;5.93;;
45198;SDS011;30941;46.422;18.772;2023-12-04T12:51:17;9.73;;;6.25;;
45198;SDS011;30941;46.422;18.772;2023-12-04T12:53:43;9.82;;;6.40;;
45198;SDS011;30941;46.422;18.772;2023-12-04T12:56:09;10.32;;;6.28;;
45198;SDS011;30941;46.422;18.772;2023-12-04T12:58:35;14.68;;;8.50;;
45198;SDS011;30941;46.422;18.772;2023-12-04T13:01:00;15.15;;;8.55;;
45198;SDS011;30941;46.422;18.772;2023-12-04T13:03:27;12.43;;;7.68;;
45198;SDS011;30941;46.422;18.772;2023-12-04T13:05:53;13.23;;;7.78;;
45198;SDS011;30941;46.422;18.772;2023-12-04T13:08:18;11.02;;;8.10;;
45198;SDS011;30941;46.422;18.772;2023-12-04T13:10:44;11.88;;;7.90;;
45198;SDS011;30941;46.422;18.772;2023-12-04T13:13:10;13.93;;;8.05;;
45198;SDS011;30941;46.422;18.772;2023-12-04T13:15:36;11.70;;;7.55;;
45198;SDS011;30941;46.422;18.772;2023-12-04T13:18:01;12.85;;;8.20;;
45198;SDS011;30941;46.422;18.772;2023-12-04T13:20:27;11.63;;;7.60;;
45198;SDS011;30941;46.422;18.772;2023-12-04T13:22:52;11.75;;;6.82;;
45198;SDS011;30941;46.422;18.772;2023-12-04T13:25:17;12.18;;;7.55;;
45198;SDS011;30941;46.422;18.772;2023-12-04T13:27:44;12.95;;;7.82;;
45198;SDS011;30941;46.422;18.772;2023-12-04T13:30:09;12.35;;;8.18;;
45198;SDS011;30941;46.422;18.772;2023-12-04T13:32:35;13.00;;;8.30;;
45198;SDS011;30941;46.422;18.772;2023-12-04T13:35:02;13.48;;;8.13;;
45198;SDS011;30941;46.422;18.772;2023-12-04T13:37:29;14.50;;;8.85;;
45198;SDS011;30941;46.422;18.772;2023-12-04T13:39:58;14.02;;;8.80;;
45198;SDS011;30941;46.422;18.772;2023-12-04T13:42:27;18.73;;;8.98;;
45198;SDS011;30941;46.422;18.772;2023-12-04T13:45:11;26.20;;;9.50;;
45198;SDS011;30941;46.422;18.772;2023-12-04T13:47:37;16.63;;;9.52;;
45198;SDS011;30941;46.422;18.772;2023-12-04T13:50:03;17.10;;;10.00;;
45198;SDS011;30941;46.422;18.772;2023-12-04T13:52:30;14.63;;;9.32;;
45198;SDS011;30941;46.422;18.772;2023-12-04T13:54:59;18.85;;;11.18;;
45198;SDS011;30941;46.422;18.772;2023-12-04T13:57:25;18.95;;;11.13;;
45198;SDS011;30941;46.422;18.772;2023-12-04T13:59:57;22.90;;;10.52;;
45198;SDS011;30941;46.422;18.772;2023-12-04T14:02:23;17.50;;;10.90;;
45198;SDS011;30941;46.422;18.772;2023-12-04T14:04:49;18.92;;;10.60;;
45198;SDS011;30941;46.422;18.772;2023-12-04T14:07:14;21.55;;;10.82;;
45198;SDS011;30941;46.422;18.772;2023-12-04T14:09:40;21.10;;;11.40;;
45198;SDS011;30941;46.422;18.772;2023-12-04T14:12:06;17.73;;;10.75;;
45198;SDS011;30941;46.422;18.772;2023-12-04T14:14:32;18.10;;;10.93;;